createdAt,value
2024-04-22T00:00:57.055Z,93.93
2024-04-22T00:03:23.709Z,93.72
2024-04-22T00:05:54.196Z,93.43
2024-04-22T00:08:20.875Z,93.53
2024-04-22T00:10:47.522Z,92.92
2024-04-22T00:13:14.154Z,92.98
2024-04-22T00:15:40.784Z,92.75
2024-04-22T00:18:07.451Z,92.56
2024-04-22T00:20:34.125Z,92.25
2024-04-22T00:23:00.691Z,92.31
2024-04-22T00:25:27.295Z,92.28
2024-04-22T00:27:53.916Z,91.99
2024-04-22T00:30:20.503Z,91.91
2024-04-22T00:32:47.176Z,91.86
2024-04-22T00:35:13.785Z,92.21
2024-04-22T00:37:40.635Z,92.00
2024-04-22T00:40:07.929Z,92.00
2024-04-22T00:42:34.592Z,92.05
2024-04-22T00:45:01.177Z,92.00
2024-04-22T00:47:27.968Z,92.25
2024-04-22T00:49:54.961Z,92.26
2024-04-22T00:52:21.699Z,92.04
2024-04-22T00:54:48.460Z,91.94
2024-04-22T00:57:17.071Z,91.95
2024-04-22T00:59:44.111Z,91.84
2024-04-22T01:02:10.904Z,92.08
2024-04-22T01:04:37.837Z,92.26
2024-04-22T01:07:05.322Z,92.44
2024-04-22T01:09:31.937Z,92.03
2024-04-22T01:11:58.685Z,92.24
2024-04-22T01:14:25.446Z,91.83
2024-04-22T01:16:55.815Z,91.71
2024-04-22T01:19:23.491Z,91.71
2024-04-22T01:21:54.098Z,91.21
2024-04-22T01:24:20.805Z,91.13
2024-04-22T01:26:49.167Z,90.71
2024-04-22T01:29:16.409Z,90.36
2024-04-22T01:31:43.025Z,89.80
2024-04-22T01:34:09.666Z,89.62
2024-04-22T01:36:41.907Z,89.36
2024-04-22T01:39:11.539Z,89.05
2024-04-22T01:41:38.153Z,88.75
2024-04-22T01:44:04.898Z,88.40
2024-04-22T01:46:31.837Z,88.26
2024-04-22T01:48:58.572Z,87.94
2024-04-22T01:51:25.147Z,87.96
2024-04-22T01:53:51.912Z,88.00
2024-04-22T01:56:18.479Z,87.93
2024-04-22T01:58:46.144Z,87.84
2024-04-22T02:01:13.000Z,87.76
2024-04-22T02:03:39.694Z,87.67
2024-04-22T02:06:06.359Z,87.96
2024-04-22T02:08:33.319Z,88.20
2024-04-22T02:10:59.995Z,87.90
2024-04-22T02:13:26.809Z,87.88
2024-04-22T02:15:53.449Z,87.59
2024-04-22T02:18:20.075Z,87.55
2024-04-22T02:20:46.669Z,87.36
2024-04-22T02:23:13.585Z,87.40
2024-04-22T02:25:41.007Z,87.34
2024-04-22T02:28:07.863Z,87.20
2024-04-22T02:30:34.470Z,87.18
2024-04-22T02:33:01.132Z,87.06
2024-04-22T02:35:27.955Z,87.43
2024-04-22T02:37:54.545Z,87.07
2024-04-22T02:40:21.143Z,87.17
2024-04-22T02:42:47.956Z,87.14
2024-04-22T02:45:14.615Z,87.26
2024-04-22T02:47:41.373Z,87.35
2024-04-22T02:50:08.184Z,87.33
2024-04-22T02:52:34.865Z,87.50
2024-04-22T02:55:01.633Z,87.38
2024-04-22T02:57:28.271Z,87.40
2024-04-22T02:59:54.851Z,87.18
2024-04-22T03:02:21.523Z,87.22
2024-04-22T03:04:51.662Z,87.74
2024-04-22T03:07:18.289Z,87.43
2024-04-22T03:09:45.700Z,87.36
2024-04-22T03:12:13.258Z,87.68
2024-04-22T03:14:40.132Z,87.74
2024-04-22T03:17:06.809Z,87.73
2024-04-22T03:19:33.562Z,88.01
2024-04-22T03:22:00.196Z,87.84
2024-04-22T03:24:26.790Z,88.08
2024-04-22T03:26:53.460Z,87.93
2024-04-22T03:29:20.016Z,88.16
2024-04-22T03:31:46.734Z,88.64
2024-04-22T03:34:13.458Z,88.50
2024-04-22T03:36:40.109Z,88.54
2024-04-22T03:39:06.699Z,88.68
2024-04-22T03:41:33.284Z,88.68
2024-04-22T03:43:59.867Z,88.79
2024-04-22T03:46:44.869Z,88.80
2024-04-22T03:49:30.224Z,89.19
2024-04-22T03:51:56.800Z,89.30
2024-04-22T03:54:23.415Z,89.43
2024-04-22T03:56:49.979Z,89.54
2024-04-22T03:59:16.559Z,89.89
2024-04-22T04:01:43.807Z,89.82
2024-04-22T04:04:10.655Z,90.31
2024-04-22T04:06:37.291Z,90.32
2024-04-22T04:09:03.902Z,90.45
2024-04-22T04:11:37.641Z,90.14
2024-04-22T04:14:08.540Z,89.93
2024-04-22T04:16:36.036Z,90.50
2024-04-22T04:19:03.724Z,90.41
2024-04-22T04:21:30.359Z,90.58
2024-04-22T04:23:56.986Z,90.87
2024-04-22T04:26:23.643Z,90.46
2024-04-22T04:28:50.971Z,90.69
2024-04-22T04:31:18.820Z,90.65
2024-04-22T04:33:45.666Z,90.55
2024-04-22T04:36:12.295Z,90.93
2024-04-22T04:38:39.136Z,90.64
2024-04-22T04:41:05.747Z,90.68
2024-04-22T04:43:33.227Z,90.19
2024-04-22T04:46:00.518Z,90.36
2024-04-22T04:48:27.329Z,90.76
2024-04-22T04:50:54.151Z,91.11
2024-04-22T04:53:22.486Z,91.15
2024-04-22T04:55:49.589Z,90.94
2024-04-22T04:58:16.754Z,91.22
2024-04-22T05:00:43.538Z,91.18
2024-04-22T05:03:10.451Z,90.92
2024-04-22T05:05:37.087Z,90.71
2024-04-22T05:08:05.138Z,91.07
2024-04-22T05:10:31.988Z,90.60
2024-04-22T05:12:58.683Z,90.88
2024-04-22T05:15:26.132Z,90.53
2024-04-22T05:17:52.848Z,90.33
2024-04-22T05:20:19.549Z,90.10
2024-04-22T05:22:46.223Z,90.17
2024-04-22T05:25:12.966Z,89.92
2024-04-22T05:27:39.602Z,89.64
2024-04-22T05:30:06.791Z,89.63
2024-04-22T05:32:33.880Z,88.97
2024-04-22T05:35:19.329Z,88.70
2024-04-22T05:37:45.995Z,88.72
2024-04-22T05:40:12.620Z,88.52
2024-04-22T05:42:39.353Z,88.58
2024-04-22T05:45:06.234Z,88.07
2024-04-22T05:47:32.922Z,87.83
2024-04-22T05:50:01.243Z,87.66
2024-04-22T05:52:28.527Z,87.65
2024-04-22T05:54:55.480Z,87.19
2024-04-22T05:57:22.395Z,86.90
2024-04-22T05:59:49.094Z,86.67
2024-04-22T06:02:15.728Z,86.37
2024-04-22T06:04:42.407Z,86.42
2024-04-22T06:07:09.208Z,85.75
2024-04-22T06:09:35.864Z,85.99
2024-04-22T06:12:11.640Z,85.51
2024-04-22T06:14:44.445Z,85.66
2024-04-22T06:17:11.220Z,85.23
2024-04-22T06:19:38.191Z,85.54
2024-04-22T06:22:04.831Z,85.65
2024-04-22T06:24:33.053Z,85.33
2024-04-22T06:26:59.699Z,85.04
2024-04-22T06:29:26.261Z,85.28
2024-04-22T06:31:52.938Z,84.91
2024-04-22T06:34:19.592Z,84.84
2024-04-22T06:36:46.234Z,84.87
2024-04-22T06:39:12.823Z,84.50
2024-04-22T06:41:39.511Z,84.58
2024-04-22T06:44:06.308Z,84.30
2024-04-22T06:46:33.720Z,84.52
2024-04-22T06:49:00.487Z,84.17
2024-04-22T06:51:27.065Z,84.23
2024-04-22T06:53:53.669Z,84.39
2024-04-22T06:56:20.338Z,84.28
2024-04-22T06:58:47.026Z,84.42
2024-04-22T07:01:23.911Z,84.16
2024-04-22T07:03:59.118Z,84.40
2024-04-22T07:06:25.935Z,84.67
2024-04-22T07:08:52.685Z,84.54
2024-04-22T07:11:19.468Z,84.24
2024-04-22T07:13:46.189Z,84.21
2024-04-22T07:16:15.239Z,83.99
2024-04-22T07:18:41.996Z,84.29
2024-04-22T07:21:08.601Z,84.64
2024-04-22T07:23:35.247Z,84.63
2024-04-22T07:26:05.425Z,84.58
2024-04-22T07:28:32.814Z,84.63
2024-04-22T07:30:59.740Z,84.82
2024-04-22T07:33:30.846Z,84.46
2024-04-22T07:36:15.279Z,84.65
2024-04-22T07:38:44.478Z,84.88
2024-04-22T07:41:11.332Z,84.71
2024-04-22T07:43:37.943Z,84.59
2024-04-22T07:46:04.762Z,84.66
2024-04-22T07:48:31.358Z,84.66
2024-04-22T07:50:57.965Z,84.72
2024-04-22T07:53:24.763Z,84.52
2024-04-22T07:55:51.730Z,84.52
2024-04-22T07:58:18.647Z,84.47
2024-04-22T08:00:45.829Z,84.50
2024-04-22T08:03:12.671Z,84.74
2024-04-22T08:05:39.617Z,84.60
2024-04-22T08:08:07.146Z,84.76
2024-04-22T08:10:33.859Z,84.79
2024-04-22T08:13:00.454Z,84.73
2024-04-22T08:15:27.588Z,84.97
2024-04-22T08:17:54.277Z,84.60
2024-04-22T08:20:20.964Z,84.24
2024-04-22T08:22:47.643Z,84.14
2024-04-22T08:25:14.494Z,84.40
2024-04-22T08:27:43.094Z,84.22
2024-04-22T08:30:10.446Z,84.61
2024-04-22T08:32:38.170Z,84.21
2024-04-22T08:35:05.261Z,84.06
2024-04-22T08:37:32.011Z,84.02
2024-04-22T08:39:58.883Z,83.62
2024-04-22T08:42:25.645Z,83.80
2024-04-22T08:44:53.508Z,83.64
2024-04-22T08:47:20.849Z,83.52
2024-04-22T08:49:47.581Z,83.38
2024-04-22T08:52:16.105Z,83.14
2024-04-22T08:54:42.863Z,82.87
2024-04-22T08:57:09.572Z,82.69
2024-04-22T08:59:40.465Z,82.67
2024-04-22T09:02:08.594Z,82.65
2024-04-22T09:04:35.572Z,82.27
2024-04-22T09:07:06.547Z,81.74
2024-04-22T09:09:42.478Z,81.45
2024-04-22T09:12:20.057Z,81.34
2024-04-22T09:14:47.153Z,81.25
2024-04-22T09:17:20.401Z,80.55
2024-04-22T09:19:47.991Z,80.47
2024-04-22T09:22:16.565Z,80.01
2024-04-22T09:24:46.085Z,79.59
2024-04-22T09:27:12.870Z,79.15
2024-04-22T09:29:43.827Z,79.01
2024-04-22T09:32:14.631Z,78.86
2024-04-22T09:34:43.357Z,77.44
2024-04-22T09:37:10.964Z,76.82
2024-04-22T09:39:39.020Z,76.06
2024-04-22T09:42:06.110Z,74.24
2024-04-22T09:44:34.154Z,72.93
2024-04-22T09:47:01.737Z,71.78
2024-04-22T09:49:31.220Z,70.31
2024-04-22T09:52:00.996Z,68.99
2024-04-22T09:54:27.761Z,68.64
2024-04-22T09:56:54.932Z,68.26
2024-04-22T09:59:21.998Z,67.61
2024-04-22T10:01:48.886Z,66.89
2024-04-22T10:04:16.328Z,65.79
2024-04-22T10:06:43.447Z,64.68
2024-04-22T10:09:16.481Z,64.33
2024-04-22T10:11:44.398Z,63.61
2024-04-22T10:14:13.170Z,62.50
2024-04-22T10:16:40.389Z,61.35
2024-04-22T10:19:10.012Z,61.51
2024-04-22T10:21:43.542Z,60.47
2024-04-22T10:24:10.164Z,59.16
2024-04-22T10:26:52.622Z,57.96
2024-04-22T10:29:23.664Z,59.31
2024-04-22T10:31:50.722Z,58.38
2024-04-22T10:34:17.492Z,59.22
2024-04-22T10:36:44.145Z,59.62
2024-04-22T10:39:10.743Z,59.97
2024-04-22T10:41:37.400Z,60.18
2024-04-22T10:44:04.500Z,59.62
2024-04-22T10:46:31.226Z,58.83
2024-04-22T10:48:58.104Z,58.41
2024-04-22T10:51:24.764Z,58.54
2024-04-22T10:53:55.494Z,57.49
2024-04-22T10:56:23.220Z,56.89
2024-04-22T10:58:52.119Z,55.87
2024-04-22T11:01:20.051Z,55.78
2024-04-22T11:03:47.001Z,55.14
2024-04-22T11:06:14.529Z,56.25
2024-04-22T11:08:42.769Z,55.76
2024-04-22T11:11:10.208Z,56.06
2024-04-22T11:13:38.740Z,56.47
2024-04-22T11:16:11.202Z,56.49
2024-04-22T11:18:39.044Z,56.00
2024-04-22T11:21:06.200Z,56.26
2024-04-22T11:23:33.534Z,55.51
2024-04-22T11:26:00.460Z,55.76
2024-04-22T11:28:27.172Z,54.68
2024-04-22T11:30:55.451Z,55.53
2024-04-22T11:33:25.667Z,55.41
2024-04-22T11:35:52.482Z,53.98
2024-04-22T11:38:19.362Z,53.35
2024-04-22T11:40:46.330Z,53.24
2024-04-22T11:43:13.818Z,54.37
2024-04-22T11:45:41.336Z,54.14
2024-04-22T11:48:08.437Z,54.37
2024-04-22T11:50:38.205Z,53.77
2024-04-22T11:53:14.710Z,54.36
2024-04-22T11:55:47.935Z,53.57
2024-04-22T11:58:14.813Z,53.55
2024-04-22T12:00:41.583Z,53.25
2024-04-22T12:03:08.560Z,53.40
2024-04-22T12:05:35.628Z,52.31
2024-04-22T12:08:02.357Z,50.54
2024-04-22T12:10:29.212Z,51.43
2024-04-22T12:12:55.780Z,50.51
2024-04-22T12:15:22.464Z,50.63
2024-04-22T12:17:49.073Z,50.95
2024-04-22T12:20:16.267Z,50.02
2024-04-22T12:22:42.925Z,50.52
2024-04-22T12:25:09.527Z,50.96
2024-04-22T12:27:36.219Z,51.24
2024-04-22T12:30:02.858Z,51.18
2024-04-22T12:32:31.198Z,50.76
2024-04-22T12:35:01.191Z,50.74
2024-04-22T12:37:27.829Z,51.26
2024-04-22T12:39:54.422Z,51.30
2024-04-22T12:42:21.120Z,51.17
2024-04-22T12:44:47.837Z,50.59
2024-04-22T12:47:33.123Z,49.92
2024-04-22T12:50:18.498Z,49.06
2024-04-22T12:52:45.204Z,49.11
2024-04-22T12:55:12.411Z,49.84
2024-04-22T12:57:39.267Z,50.06
2024-04-22T13:00:13.605Z,50.45
2024-04-22T13:02:40.788Z,50.72
2024-04-22T13:05:07.523Z,50.34
2024-04-22T13:07:34.231Z,50.89
2024-04-22T13:10:00.890Z,50.88
2024-04-22T13:12:27.997Z,50.53
2024-04-22T13:14:54.696Z,50.38
2024-04-22T13:17:21.466Z,50.25
2024-04-22T13:19:48.192Z,50.67
2024-04-22T13:22:15.154Z,50.15
2024-04-22T13:24:41.841Z,49.34
2024-04-22T13:27:11.288Z,49.01
2024-04-22T13:29:37.862Z,49.40
2024-04-22T13:32:05.041Z,49.18
2024-04-22T13:34:32.100Z,48.77
2024-04-22T13:36:58.757Z,48.57
2024-04-22T13:39:25.980Z,48.85
2024-04-22T13:41:53.381Z,48.70
2024-04-22T13:44:20.089Z,49.04
2024-04-22T13:46:46.926Z,49.67
2024-04-22T13:49:15.238Z,49.87
2024-04-22T13:51:42.304Z,50.64
2024-04-22T13:54:09.572Z,50.78
2024-04-22T13:56:36.723Z,51.03
2024-04-22T13:59:03.962Z,51.22
2024-04-22T14:01:31.234Z,50.60
2024-04-22T14:03:58.013Z,51.47
2024-04-22T14:06:24.672Z,51.97
2024-04-22T14:08:51.535Z,52.00
2024-04-22T14:11:18.418Z,52.21
2024-04-22T14:13:45.425Z,52.04
2024-04-22T14:16:12.157Z,51.84
2024-04-22T14:18:38.825Z,51.76
2024-04-22T14:21:05.614Z,51.79
2024-04-22T14:23:32.233Z,51.74
2024-04-22T14:26:00.417Z,51.74
2024-04-22T14:28:28.525Z,51.46
2024-04-22T14:30:55.940Z,52.13
2024-04-22T14:33:23.887Z,52.21
2024-04-22T14:35:51.190Z,52.90
2024-04-22T14:38:17.906Z,52.27
2024-04-22T14:40:44.707Z,53.42
2024-04-22T14:43:11.478Z,53.38
2024-04-22T14:45:38.370Z,53.60
2024-04-22T14:48:05.552Z,53.93
2024-04-22T14:50:32.194Z,54.57
2024-04-22T14:53:01.417Z,54.29
2024-04-22T14:55:29.468Z,54.28
2024-04-22T14:57:56.163Z,54.54
2024-04-22T15:00:22.797Z,54.41
2024-04-22T15:02:50.135Z,54.79
2024-04-22T15:05:16.994Z,54.35
2024-04-22T15:07:43.654Z,53.68
2024-04-22T15:10:10.318Z,53.30
2024-04-22T15:12:37.070Z,53.36
2024-04-22T15:15:03.886Z,52.83
2024-04-22T15:17:30.656Z,52.84
2024-04-22T15:19:57.522Z,53.47
2024-04-22T15:22:24.331Z,53.32
2024-04-22T15:24:50.908Z,53.62
2024-04-22T15:27:17.576Z,53.92
2024-04-22T15:29:44.206Z,53.92
2024-04-22T15:32:10.923Z,53.90
2024-04-22T15:34:39.696Z,54.25
2024-04-22T15:37:06.642Z,54.68
2024-04-22T15:39:33.569Z,54.69
2024-04-22T15:42:00.252Z,55.00
2024-04-22T15:44:26.807Z,55.04
2024-04-22T15:46:54.311Z,55.11
2024-04-22T15:49:21.098Z,55.18
2024-04-22T15:51:47.677Z,55.35
2024-04-22T15:54:14.274Z,55.54
2024-04-22T15:56:42.357Z,55.22
2024-04-22T15:59:09.352Z,55.87
2024-04-22T16:01:36.740Z,55.72
2024-04-22T16:04:03.788Z,54.99
2024-04-22T16:06:30.524Z,55.12
2024-04-22T16:08:57.138Z,54.70
2024-04-22T16:11:23.743Z,55.10
2024-04-22T16:13:50.532Z,55.51
2024-04-22T16:16:17.183Z,54.97
2024-04-22T16:18:43.801Z,55.45
2024-04-22T16:21:15.366Z,55.18
2024-04-22T16:23:44.193Z,55.41
2024-04-22T16:26:11.433Z,55.68
2024-04-22T16:28:38.212Z,55.94
2024-04-22T16:31:05.007Z,55.96
2024-04-22T16:33:31.684Z,56.00
2024-04-22T16:35:58.370Z,55.83
2024-04-22T16:38:25.128Z,56.05
2024-04-22T16:40:51.955Z,55.83
2024-04-22T16:43:21.378Z,56.23
2024-04-22T16:45:48.503Z,56.15
2024-04-22T16:48:15.435Z,55.76
2024-04-22T16:50:42.695Z,56.21
2024-04-22T16:53:09.356Z,56.34
2024-04-22T16:55:36.088Z,55.91
2024-04-22T16:58:02.887Z,56.12
2024-04-22T17:00:29.896Z,56.08
2024-04-22T17:02:56.538Z,56.03
2024-04-22T17:05:23.159Z,55.74
2024-04-22T17:07:49.988Z,55.44
2024-04-22T17:10:18.988Z,55.62
2024-04-22T17:12:45.808Z,55.46
2024-04-22T17:15:12.689Z,55.21
2024-04-22T17:17:39.520Z,55.61
2024-04-22T17:20:06.955Z,55.42
2024-04-22T17:22:33.565Z,55.25
2024-04-22T17:25:00.247Z,55.48
2024-04-22T17:27:27.003Z,55.33
2024-04-22T17:29:53.816Z,55.25
2024-04-22T17:32:20.573Z,54.94
2024-04-22T17:34:47.690Z,55.43
2024-04-22T17:37:19.061Z,55.11
2024-04-22T17:39:49.637Z,55.29
2024-04-22T17:42:16.227Z,54.94
2024-04-22T17:44:48.378Z,55.84
2024-04-22T17:47:15.149Z,55.92
2024-04-22T17:49:41.784Z,56.39
2024-04-22T17:52:08.399Z,56.93
2024-04-22T17:54:35.013Z,56.82
2024-04-22T17:57:06.848Z,56.68
2024-04-22T17:59:34.318Z,57.09
2024-04-22T18:02:00.898Z,57.21
2024-04-22T18:04:27.736Z,57.76
2024-04-22T18:06:54.395Z,58.13
2024-04-22T18:09:21.055Z,58.27
2024-04-22T18:11:47.799Z,58.50
2024-04-22T18:14:14.419Z,58.79
2024-04-22T18:16:42.342Z,59.42
2024-04-22T18:19:09.094Z,59.47
2024-04-22T18:21:35.748Z,59.51
2024-04-22T18:24:05.184Z,59.63
2024-04-22T18:26:34.055Z,60.10
2024-04-22T18:29:01.066Z,60.50
2024-04-22T18:31:27.757Z,60.64
2024-04-22T18:33:54.351Z,60.84
2024-04-22T18:36:20.915Z,61.15
2024-04-22T18:38:48.974Z,61.35
2024-04-22T18:41:15.914Z,61.73
2024-04-22T18:43:42.675Z,61.85
2024-04-22T18:46:09.683Z,61.91
2024-04-22T18:48:36.466Z,62.25
2024-04-22T18:51:03.337Z,62.31
2024-04-22T18:53:30.172Z,62.40
2024-04-22T18:55:57.098Z,62.28
2024-04-22T18:58:29.064Z,62.53
2024-04-22T19:00:56.048Z,62.66
2024-04-22T19:03:22.718Z,62.77
2024-04-22T19:05:49.438Z,62.94
2024-04-22T19:08:16.080Z,62.85
2024-04-22T19:10:42.962Z,63.33
2024-04-22T19:13:09.717Z,63.46
2024-04-22T19:15:36.356Z,63.58
2024-04-22T19:18:03.234Z,63.67
2024-04-22T19:20:29.967Z,63.81
2024-04-22T19:22:56.706Z,64.07
2024-04-22T19:25:23.515Z,64.09
2024-04-22T19:27:52.184Z,63.94
2024-04-22T19:30:19.448Z,64.24
2024-04-22T19:32:46.416Z,64.18
2024-04-22T19:35:13.396Z,64.50
2024-04-22T19:37:40.824Z,64.38
2024-04-22T19:40:08.106Z,64.89
2024-04-22T19:42:34.768Z,65.26
2024-04-22T19:45:03.571Z,65.30
2024-04-22T19:47:30.469Z,65.25
2024-04-22T19:49:57.220Z,65.41
2024-04-22T19:52:24.057Z,65.54
2024-04-22T19:54:53.163Z,65.89
2024-04-22T19:57:22.715Z,66.00
2024-04-22T19:59:50.998Z,66.34
2024-04-22T20:02:17.994Z,66.43
2024-04-22T20:04:45.329Z,66.46
2024-04-22T20:07:12.405Z,66.72
2024-04-22T20:09:39.056Z,67.05
2024-04-22T20:12:06.164Z,67.26
2024-04-22T20:14:32.793Z,67.15
2024-04-22T20:17:00.812Z,67.59
2024-04-22T20:19:29.303Z,67.67
2024-04-22T20:21:56.180Z,67.64
2024-04-22T20:24:23.081Z,67.83
2024-04-22T20:26:49.706Z,68.00
2024-04-22T20:29:18.582Z,68.18
2024-04-22T20:31:45.386Z,68.46
2024-04-22T20:34:12.295Z,69.10
2024-04-22T20:36:39.456Z,68.88
2024-04-22T20:39:06.081Z,68.84
2024-04-22T20:41:32.808Z,69.04
2024-04-22T20:44:00.794Z,68.92
2024-04-22T20:46:27.612Z,68.82
2024-04-22T20:48:54.436Z,69.53
2024-04-22T20:51:21.133Z,69.42
2024-04-22T20:53:47.854Z,69.05
2024-04-22T20:56:14.471Z,68.89
2024-04-22T20:58:41.207Z,68.98
2024-04-22T21:01:10.463Z,68.99
2024-04-22T21:03:37.645Z,69.50
2024-04-22T21:06:05.449Z,69.45
2024-04-22T21:08:32.819Z,69.59
2024-04-22T21:11:02.572Z,69.41
2024-04-22T21:13:33.347Z,69.81
2024-04-22T21:16:00.160Z,69.75
2024-04-22T21:18:26.787Z,69.77
2024-04-22T21:20:53.418Z,69.91
2024-04-22T21:23:20.019Z,70.07
2024-04-22T21:25:46.684Z,70.09
2024-04-22T21:28:13.346Z,69.63
2024-04-22T21:30:40.024Z,69.63
2024-04-22T21:33:25.999Z,69.43
2024-04-22T21:35:53.590Z,69.51
2024-04-22T21:38:20.284Z,69.65
2024-04-22T21:40:47.548Z,69.88
2024-04-22T21:43:14.853Z,69.84
2024-04-22T21:45:41.830Z,70.04
2024-04-22T21:48:08.517Z,70.07
2024-04-22T21:50:35.737Z,70.11
2024-04-22T21:53:02.560Z,70.40
2024-04-22T21:55:49.249Z,70.56
2024-04-22T21:58:53.365Z,70.62
2024-04-22T22:01:57.631Z,70.59
2024-04-22T22:05:02.216Z,70.75
2024-04-22T22:07:28.816Z,70.63
2024-04-22T22:09:56.051Z,71.02
2024-04-22T22:12:24.414Z,71.16
2024-04-22T22:14:52.302Z,71.43
2024-04-22T22:17:19.181Z,71.67
2024-04-22T22:19:47.367Z,71.69
2024-04-22T22:22:14.100Z,71.89
2024-04-22T22:24:42.700Z,71.73
2024-04-22T22:27:11.338Z,71.86
2024-04-22T22:29:38.529Z,71.58
2024-04-22T22:32:05.901Z,71.42
2024-04-22T22:34:32.835Z,71.57
2024-04-22T22:37:04.401Z,71.25
2024-04-22T22:39:31.367Z,71.35
2024-04-22T22:41:58.104Z,71.16
2024-04-22T22:44:25.947Z,71.50
2024-04-22T22:47:02.328Z,71.20
2024-04-22T22:49:47.616Z,71.14
2024-04-22T22:52:14.233Z,71.28
2024-04-22T22:54:40.831Z,71.59
2024-04-22T22:57:09.684Z,71.50
2024-04-22T22:59:36.247Z,71.90
2024-04-22T23:02:02.860Z,71.90
2024-04-22T23:04:29.658Z,71.95
2024-04-22T23:07:03.341Z,71.86
2024-04-22T23:09:29.979Z,72.12
2024-04-22T23:11:56.608Z,72.09
2024-04-22T23:14:23.165Z,72.40
2024-04-22T23:16:50.205Z,72.40
2024-04-22T23:19:16.869Z,72.76
2024-04-22T23:21:43.541Z,72.65
2024-04-22T23:24:10.361Z,73.03
2024-04-22T23:26:36.947Z,72.86
2024-04-22T23:29:03.570Z,73.41
2024-04-22T23:31:30.243Z,73.09
2024-04-22T23:33:56.809Z,73.45
2024-04-22T23:36:23.395Z,73.47
2024-04-22T23:38:49.968Z,73.49
2024-04-22T23:41:16.517Z,73.53
2024-04-22T23:43:45.003Z,73.58
2024-04-22T23:46:11.669Z,73.71
2024-04-22T23:48:38.233Z,73.61
2024-04-22T23:51:04.939Z,73.62
2024-04-22T23:53:31.495Z,73.95
2024-04-22T23:55:58.137Z,74.19
2024-04-22T23:58:24.919Z,73.96
